Time;durP1;ratioP1;P1;durP2;ratioP2;P2;SDS_P1;SDS_P2;PMS_P1;PMS_P2;Temp;Humidity;BMP_temperature;BMP_pressure;BME280_temperature;BME280_humidity;BME280_pressure;Samples;Min_cycle;Max_cycle;Signal;HPM_P1;HPM_P2
2022/10/07 00:01:36;;;;;;;21.60;4.63;;;;;;;16.75;100.00;102551.75;5012669;28;20064;-53
2022/10/07 00:04:01;;;;;;;19.48;5.25;;;;;;;16.88;100.00;102548.31;5009900;28;20058;-53
2022/10/07 00:06:27;;;;;;;23.42;6.22;;;;;;;16.76;100.00;102549.88;5001012;28;20048;-51
2022/10/07 00:08:53;;;;;;;16.73;4.70;;;;;;;16.77;100.00;102551.56;5011335;28;20035;-51
2022/10/07 00:11:21;;;;;;;13.25;4.88;;;;;;;16.57;100.00;102546.81;4999848;28;20277;-52
2022/10/07 00:13:50;;;;;;;20.02;5.28;;;;;;;16.43;100.00;102545.00;5011773;28;20042;-53
2022/10/07 00:16:19;;;;;;;14.10;3.90;;;;;;;16.61;100.00;102539.16;5013567;28;20043;-55
2022/10/07 00:18:46;;;;;;;14.67;4.70;;;;;;;16.56;100.00;102545.16;4998304;28;20276;-53
2022/10/07 00:21:14;;;;;;;18.07;5.77;;;;;;;16.67;100.00;102542.94;5008880;28;20257;-54
2022/10/07 00:23:42;;;;;;;19.00;4.83;;;;;;;16.28;100.00;102539.69;5005800;28;20268;-52
2022/10/07 00:26:10;;;;;;;27.63;6.53;;;;;;;16.25;100.00;102534.66;5014846;28;20306;-55
2022/10/07 00:28:36;;;;;;;13.95;4.43;;;;;;;16.13;100.00;102527.06;5004682;28;20299;-51
2022/10/07 00:31:14;;;;;;;17.75;5.03;;;;;;;15.98;100.00;102523.59;5013404;28;20042;-52
2022/10/07 00:33:40;;;;;;;21.90;4.57;;;;;;;16.03;100.00;102527.41;5001837;28;20125;-49
2022/10/07 00:36:15;;;;;;;15.20;6.00;;;;;;;16.03;100.00;102523.84;4998606;28;20295;-50
2022/10/07 00:38:41;;;;;;;14.40;4.60;;;;;;;15.95;100.00;102521.28;5001364;28;20296;-52
2022/10/07 00:41:08;;;;;;;15.17;4.83;;;;;;;15.95;100.00;102519.41;4980841;28;20272;-52
2022/10/07 00:43:34;;;;;;;18.37;5.00;;;;;;;15.87;100.00;102520.31;5007135;28;20275;-52
2022/10/07 00:46:11;;;;;;;15.20;5.30;;;;;;;16.19;100.00;102515.53;5002184;28;20280;-52
2022/10/07 00:48:38;;;;;;;14.23;4.97;;;;;;;16.09;100.00;102508.75;5006764;28;20046;-50
2022/10/07 00:51:06;;;;;;;17.35;5.40;;;;;;;16.07;100.00;102508.13;5004636;28;20072;-48
2022/10/07 00:53:33;;;;;;;12.30;5.90;;;;;;;16.28;100.00;102504.59;4996114;28;20073;-54
2022/10/07 00:56:01;;;;;;;20.13;5.93;;;;;;;16.42;100.00;102506.38;5008035;28;20260;-54
2022/10/07 00:58:33;;;;;;;19.27;5.17;;;;;;;16.45;100.00;102497.91;5000836;28;20263;-51
2022/10/07 01:00:59;;;;;;;24.00;5.10;;;;;;;15.95;100.00;102499.69;5001028;28;20276;-49
2022/10/07 01:03:25;;;;;;;15.35;5.05;;;;;;;16.15;100.00;102495.34;5008453;28;20291;-52
2022/10/07 01:05:53;;;;;;;27.17;5.47;;;;;;;16.02;100.00;102489.78;5007960;28;20041;-52
2022/10/07 01:08:21;;;;;;;16.00;4.83;;;;;;;16.02;100.00;102484.41;5008714;28;20299;-53
2022/10/07 01:11:13;;;;;;;20.25;5.00;;;;;;;16.29;100.00;102484.66;5010202;28;20278;-50
2022/10/07 01:13:46;;;;;;;16.73;4.97;;;;;;;16.28;100.00;102473.03;5008975;28;20048;-51
2022/10/07 01:16:21;;;;;;;12.77;4.80;;;;;;;16.23;100.00;102472.75;5012678;28;20038;-50
2022/10/07 01:18:57;;;;;;;16.57;5.17;;;;;;;16.18;100.00;102470.66;5018532;28;20291;-52
2022/10/07 01:21:39;;;;;;;13.43;5.32;;;;;;;16.37;100.00;102468.31;5032518;28;20271;-49
2022/10/07 01:24:22;;;;;;;21.83;5.33;;;;;;;15.98;100.00;102465.03;5021514;28;20038;-52
2022/10/07 01:26:56;;;;;;;14.77;5.78;;;;;;;16.32;100.00;102468.06;4999635;28;20253;-53
2022/10/07 01:29:25;;;;;;;17.17;5.30;;;;;;;16.42;100.00;102463.19;5021190;28;20034;-51
2022/10/07 01:32:00;;;;;;;22.73;5.63;;;;;;;16.40;100.00;102459.84;4997307;28;20288;-53
2022/10/07 01:34:26;;;;;;;14.60;5.00;;;;;;;16.03;100.00;102456.38;5032370;28;20295;-54
2022/10/07 01:36:54;;;;;;;;;;;;;;;16.20;100.00;102449.72;5012183;28;20067;-51
2022/10/07 01:39:26;;;;;;;19.13;4.97;;;;;;;16.28;100.00;102445.19;5009406;28;19914;-53
2022/10/07 01:41:52;;;;;;;14.73;5.22;;;;;;;16.31;100.00;102442.94;4998604;28;20035;-49
2022/10/07 01:44:18;;;;;;;18.30;4.70;;;;;;;16.12;100.00;102439.03;5011553;28;20035;-51
2022/10/07 01:46:43;;;;;;;17.17;6.18;;;;;;;15.87;100.00;102438.56;5021456;28;20098;-54
2022/10/07 01:49:09;;;;;;;21.63;5.30;;;;;;;15.85;100.00;102435.22;4989973;28;20047;-54
2022/10/07 01:51:48;;;;;;;19.48;5.35;;;;;;;16.25;100.00;102434.78;4985235;28;20035;-54
2022/10/07 01:54:43;;;;;;;19.20;5.30;;;;;;;16.32;100.00;102430.28;4989257;28;20042;-53
2022/10/07 01:57:35;;;;;;;18.20;5.60;;;;;;;16.17;100.00;102425.81;4976961;28;20043;-53
2022/10/07 02:00:08;;;;;;;18.37;5.37;;;;;;;16.33;100.00;102422.00;4985438;28;20345;-50
2022/10/07 02:03:17;;;;;;;16.08;5.05;;;;;;;16.02;100.00;102419.63;4986660;28;20278;-53
2022/10/07 02:05:55;;;;;;;25.98;5.75;;;;;;;16.01;100.00;102417.97;4989886;28;20049;-54
2022/10/07 02:08:51;;;;;;;15.75;5.13;;;;;;;16.47;100.00;102416.69;4970887;28;20042;-51
2022/10/07 02:11:24;;;;;;;19.92;5.00;;;;;;;16.07;100.00;102401.00;4982881;28;20043;-52
2022/10/07 02:14:02;;;;;;;15.45;4.57;;;;;;;15.82;100.00;102414.84;4979854;28;20045;-53
2022/10/07 02:16:47;;;;;;;16.70;5.30;;;;;;;15.94;100.00;102398.19;4983910;28;20028;-48
2022/10/07 02:19:22;;;;;;;17.67;5.53;;;;;;;16.07;100.00;102400.19;4981514;28;20041;-52
2022/10/07 02:21:51;;;;;;;17.75;5.55;;;;;;;16.22;100.00;102397.41;4975565;28;20120;-50
2022/10/07 02:24:20;;;;;;;18.23;5.47;;;;;;;15.89;100.00;102386.09;4977479;28;20039;-52
2022/10/07 02:26:50;;;;;;;18.60;5.20;;;;;;;16.02;100.00;102384.56;4984981;28;20034;-50
2022/10/07 02:29:20;;;;;;;22.50;6.65;;;;;;;16.09;100.00;102380.03;4991539;28;20034;-50
2022/10/07 02:31:50;;;;;;;21.55;6.13;;;;;;;16.15;100.00;102373.03;4984447;28;20042;-55
2022/10/07 02:34:18;;;;;;;14.45;4.82;;;;;;;16.33;100.00;102368.00;4980327;28;20043;-52
2022/10/07 02:36:49;;;;;;;20.45;5.20;;;;;;;15.98;100.00;102369.78;4994801;28;20031;-46
2022/10/07 02:39:14;;;;;;;14.63;6.00;;;;;;;15.91;100.00;102372.44;4985337;28;20067;-54
2022/10/07 02:41:50;;;;;;;22.40;4.90;;;;;;;16.03;100.00;102370.88;4985398;28;20051;-48
2022/10/07 02:44:32;;;;;;;18.08;6.43;;;;;;;15.68;100.00;102359.94;4987186;28;20050;-51
2022/10/07 02:47:27;;;;;;;23.58;6.32;;;;;;;15.65;100.00;102362.19;4989525;28;20023;-52
2022/10/07 02:49:59;;;;;;;13.77;5.57;;;;;;;15.65;100.00;102348.69;5008624;28;20043;-54
2022/10/07 02:52:27;;;;;;;21.25;5.53;;;;;;;15.86;100.00;102355.97;5018419;28;20035;-53
2022/10/07 02:55:00;;;;;;;17.35;5.38;;;;;;;15.92;100.00;102347.13;5006878;28;20038;-52
2022/10/07 02:57:31;;;;;;;18.85;4.63;;;;;;;15.98;100.00;102346.31;5010881;28;20621;-53
2022/10/07 02:59:59;;;;;;;13.65;4.20;;;;;;;15.60;100.00;102352.00;5009831;28;20042;-53
2022/10/07 03:02:35;;;;;;;27.25;5.57;;;;;;;15.68;100.00;102345.59;5007014;28;20100;-53
2022/10/07 03:05:02;;;;;;;14.20;4.80;;;;;;;15.45;100.00;102341.22;4999729;28;20521;-54
2022/10/07 03:07:28;;;;;;;24.48;5.18;;;;;;;15.79;100.00;102347.81;4994426;28;20062;-51
2022/10/07 03:09:53;;;;;;;18.53;5.67;;;;;;;15.71;100.00;102337.16;5006262;28;20034;-49
2022/10/07 03:12:19;;;;;;;21.10;5.93;;;;;;;15.56;100.00;102339.88;5014613;28;20031;-54
2022/10/07 03:14:48;;;;;;;15.77;4.85;;;;;;;15.58;100.00;102338.69;4997936;28;20049;-51
2022/10/07 03:17:16;;;;;;;21.08;5.78;;;;;;;15.58;100.00;102336.00;5018242;28;20073;-50
2022/10/07 03:19:43;;;;;;;22.42;4.65;;;;;;;15.67;100.00;102335.84;5007338;28;20054;-52
2022/10/07 03:22:09;;;;;;;20.75;5.18;;;;;;;15.69;100.00;102329.25;5002181;28;20061;-53
2022/10/07 03:24:37;;;;;;;23.45;5.20;;;;;;;15.74;100.00;102326.78;5007155;28;20025;-52
2022/10/07 03:27:06;;;;;;;21.90;5.28;;;;;;;15.13;100.00;102324.50;5003015;28;20076;-52
2022/10/07 03:29:33;;;;;;;18.85;4.47;;;;;;;15.23;100.00;102319.66;5015780;28;20141;-51
2022/10/07 03:32:01;;;;;;;15.30;4.28;;;;;;;15.47;100.00;102326.53;5002333;28;20027;-48
2022/10/07 03:34:27;;;;;;;26.10;5.15;;;;;;;15.45;100.00;102325.91;5006127;28;20045;-49
2022/10/07 03:36:54;;;;;;;25.65;5.22;;;;;;;15.52;100.00;102325.13;5005782;28;20032;-53
2022/10/07 03:39:19;;;;;;;15.73;5.20;;;;;;;15.50;100.00;102325.34;5011715;28;20027;-50
2022/10/07 03:41:47;;;;;;;26.63;6.00;;;;;;;15.25;100.00;102322.16;5008353;28;20043;-48
2022/10/07 03:44:13;;;;;;;29.60;5.15;;;;;;;15.34;100.00;102321.03;5009785;28;20276;-51
2022/10/07 03:46:40;;;;;;;17.13;4.13;;;;;;;15.60;100.00;102314.25;5003282;28;20077;-48
2022/10/07 03:49:06;;;;;;;23.15;4.63;;;;;;;15.48;100.00;102309.34;4984908;28;20043;-52
2022/10/07 03:51:32;;;;;;;21.27;4.93;;;;;;;15.49;100.00;102315.59;4991136;28;20042;-54
2022/10/07 03:53:58;;;;;;;12.52;4.55;;;;;;;15.49;100.00;102307.50;4993399;28;20035;-53
2022/10/07 03:56:28;;;;;;;18.98;4.47;;;;;;;15.17;100.00;102304.25;4982377;28;20031;-53
2022/10/07 03:58:54;;;;;;;19.33;5.05;;;;;;;15.29;100.00;102302.72;4996452;28;20049;-54
2022/10/07 04:01:20;;;;;;;21.25;4.82;;;;;;;15.10;100.00;102300.66;4979460;28;20039;-54
2022/10/07 04:03:48;;;;;;;21.42;4.65;;;;;;;15.26;100.00;102297.72;4985766;28;20065;-51
2022/10/07 04:06:15;;;;;;;17.55;4.88;;;;;;;15.27;100.00;102295.84;4989913;28;20035;-53
2022/10/07 04:08:42;;;;;;;22.67;4.53;;;;;;;14.53;100.00;102297.63;4986135;28;20278;-52
2022/10/07 04:11:08;;;;;;;19.85;4.35;;;;;;;14.70;100.00;102292.91;4993372;28;20059;-54
2022/10/07 04:13:37;;;;;;;30.70;5.47;;;;;;;14.48;100.00;102293.63;4989075;28;20022;-55
2022/10/07 04:16:08;;;;;;;;;;;;;;;15.52;100.00;102287.38;4982360;28;20028;-53
2022/10/07 04:18:34;;;;;;;15.18;4.32;;;;;;;15.51;100.00;102289.25;4986526;28;19925;-54
2022/10/07 04:21:00;;;;;;;23.38;4.88;;;;;;;15.53;100.00;102273.72;4982791;28;20031;-52
2022/10/07 04:23:28;;;;;;;23.00;4.93;;;;;;;15.52;100.00;102284.69;4985834;28;20039;-55
2022/10/07 04:25:53;;;;;;;19.45;5.05;;;;;;;15.27;100.00;102285.91;4990764;28;20064;-51
2022/10/07 04:28:23;;;;;;;20.38;4.82;;;;;;;15.09;100.00;102274.72;4981542;28;20042;-54
2022/10/07 04:30:54;;;;;;;20.00;4.45;;;;;;;15.68;100.00;102283.59;4988696;28;20031;-48
2022/10/07 04:33:30;;;;;;;18.80;5.20;;;;;;;15.17;100.00;102275.44;4994352;28;20029;-53
2022/10/07 04:36:03;;;;;;;24.48;4.50;;;;;;;15.32;100.00;102285.31;4985477;28;20051;-53
2022/10/07 04:38:31;;;;;;;17.83;4.45;;;;;;;15.37;100.00;102276.66;4987517;28;20030;-50
2022/10/07 04:41:03;;;;;;;19.23;4.70;;;;;;;14.91;100.00;102274.13;4982543;28;20391;-52
2022/10/07 04:43:32;;;;;;;22.60;4.63;;;;;;;15.25;100.00;102274.50;4983810;28;20042;-54
2022/10/07 04:46:05;;;;;;;17.63;4.47;;;;;;;15.59;100.00;102272.94;4984973;28;20110;-50
2022/10/07 04:48:34;;;;;;;25.60;4.95;;;;;;;15.18;100.00;102277.13;5045930;28;20075;-53
2022/10/07 04:51:01;;;;;;;;;;;;;;;15.46;100.00;102275.53;5058101;28;20041;-54
2022/10/07 04:53:28;;;;;;;21.25;3.95;;;;;;;15.37;100.00;102276.66;5062900;28;19941;-49
2022/10/07 04:55:53;;;;;;;17.65;4.22;;;;;;;15.31;100.00;102276.41;5069296;28;20037;-51
2022/10/07 04:58:22;;;;;;;16.02;4.78;;;;;;;15.09;100.00;102280.94;5062008;28;20056;-51
2022/10/07 05:00:49;;;;;;;19.00;5.00;;;;;;;15.33;100.00;102276.22;5067628;28;20496;-49
2022/10/07 05:03:19;;;;;;;21.75;5.30;;;;;;;15.31;100.00;102273.72;5070376;28;20026;-53
2022/10/07 05:05:49;;;;;;;21.48;5.03;;;;;;;15.38;100.00;102272.94;5063244;28;20025;-48
2022/10/07 05:08:18;;;;;;;18.13;5.40;;;;;;;15.30;100.00;102268.50;5065249;28;20069;-53
2022/10/07 05:10:44;;;;;;;21.55;4.63;;;;;;;15.45;100.00;102269.28;5061524;28;20064;-54
2022/10/07 05:13:13;;;;;;;28.47;4.30;;;;;;;15.55;100.00;102268.13;5066444;28;20037;-53
2022/10/07 05:15:48;;;;;;;22.52;3.95;;;;;;;15.34;100.00;102267.94;5061995;28;20297;-53
2022/10/07 05:18:14;;;;;;;24.45;5.07;;;;;;;15.47;100.00;102264.53;5063336;28;20041;-53
2022/10/07 05:20:42;;;;;;;28.00;4.40;;;;;;;15.39;100.00;102262.00;5063504;28;20071;-51
2022/10/07 05:23:08;;;;;;;18.15;4.70;;;;;;;15.33;100.00;102263.59;5063243;28;20029;-54
2022/10/07 05:25:33;;;;;;;21.00;4.77;;;;;;;15.44;100.00;102259.53;5065324;28;20109;-55
2022/10/07 05:27:59;;;;;;;28.07;4.63;;;;;;;15.56;100.00;102265.25;5064210;28;20033;-50
2022/10/07 05:30:25;;;;;;;22.85;5.07;;;;;;;15.23;100.00;102262.22;5065177;28;20301;-47
2022/10/07 05:32:53;;;;;;;19.20;4.80;;;;;;;15.21;100.00;102262.41;5068917;28;20053;-53
2022/10/07 05:35:20;;;;;;;20.40;4.47;;;;;;;15.43;100.00;102257.03;5066452;28;20151;-50
2022/10/07 05:37:47;;;;;;;26.48;5.22;;;;;;;15.47;100.00;102259.16;5065227;28;20028;-50
2022/10/07 05:40:12;;;;;;;21.50;5.03;;;;;;;15.40;100.00;102262.81;5065327;28;20519;-51
2022/10/07 05:42:38;;;;;;;15.40;4.40;;;;;;;15.37;100.00;102257.81;5061669;28;20044;-53
2022/10/07 05:45:05;;;;;;;18.42;5.00;;;;;;;15.14;100.00;102256.97;5060390;28;20052;-54
2022/10/07 05:47:32;;;;;;;23.35;6.90;;;;;;;15.05;100.00;102253.56;5041082;28;20144;-53
2022/10/07 05:49:59;;;;;;;22.83;4.80;;;;;;;15.43;100.00;102248.94;4982828;28;20046;-52
2022/10/07 05:52:25;;;;;;;23.60;4.60;;;;;;;15.78;100.00;102251.72;4988579;28;20035;-50
2022/10/07 05:54:51;;;;;;;23.92;4.95;;;;;;;15.55;100.00;102247.41;4986569;28;20098;-51
2022/10/07 05:57:16;;;;;;;21.67;5.33;;;;;;;15.23;100.00;102244.22;4984143;28;20085;-50
2022/10/07 05:59:43;;;;;;;26.25;4.68;;;;;;;15.41;100.00;102234.81;4979852;28;20039;-54
2022/10/07 06:02:17;;;;;;;18.60;4.80;;;;;;;15.48;100.00;102241.94;4981306;28;20055;-51
2022/10/07 06:04:47;;;;;;;13.75;4.43;;;;;;;15.62;100.00;102240.19;4991326;28;20039;-53
2022/10/07 06:07:15;;;;;;;19.60;4.97;;;;;;;15.27;100.00;102241.94;4989654;28;20047;-53
2022/10/07 06:15:12;;;;;;;20.17;4.75;;;;;;;14.85;100.00;102234.47;4984912;28;20039;-50
2022/10/07 06:17:42;;;;;;;22.00;4.95;;;;;;;14.76;100.00;102239.16;4996850;28;20049;-52
2022/10/07 06:20:12;;;;;;;25.45;6.38;;;;;;;15.33;100.00;102233.09;4989285;28;20027;-51
2022/10/07 06:22:38;;;;;;;27.88;5.30;;;;;;;15.72;100.00;102234.47;4990714;28;20095;-50
2022/10/07 06:25:05;;;;;;;;;;;;;;;15.47;100.00;102244.84;4980941;28;20054;-48
2022/10/07 06:27:33;;;;;;;38.80;7.10;;;;;;;15.80;100.00;102241.56;4990135;28;19944;-53
2022/10/07 06:29:58;;;;;;;22.83;5.30;;;;;;;15.96;100.00;102247.75;4981127;28;20036;-54
2022/10/07 06:32:24;;;;;;;13.73;4.20;;;;;;;15.99;100.00;102241.94;4988980;28;20034;-54
2022/10/07 06:34:49;;;;;;;19.83;5.72;;;;;;;15.83;100.00;102249.28;4991560;28;20059;-51
2022/10/07 06:37:15;;;;;;;18.70;4.97;;;;;;;16.12;100.00;102244.72;4989997;28;20031;-54
2022/10/07 06:39:40;;;;;;;25.27;5.38;;;;;;;16.27;100.00;102241.06;4984068;28;20031;-53
2022/10/07 06:42:07;;;;;;;27.15;6.13;;;;;;;16.19;100.00;102237.50;4994049;28;20099;-52
2022/10/07 06:44:55;;;;;;;27.57;5.30;;;;;;;16.89;100.00;102246.53;4984041;28;20035;-54
2022/10/07 06:47:22;;;;;;;26.10;5.00;;;;;;;16.76;100.00;102241.94;4999915;28;20331;-53
2022/10/07 06:49:49;;;;;;;20.40;5.05;;;;;;;16.86;100.00;102234.25;4984589;28;20268;-52
2022/10/07 06:52:14;;;;;;;27.38;5.80;;;;;;;16.61;100.00;102244.78;4981958;28;20046;-55
2022/10/07 06:54:41;;;;;;;31.87;5.03;;;;;;;16.65;100.00;102239.78;4985425;28;20031;-52
2022/10/07 06:57:09;;;;;;;20.80;4.70;;;;;;;16.93;100.00;102234.28;4985073;28;20277;-58
2022/10/07 06:59:36;;;;;;;20.60;4.63;;;;;;;16.72;100.00;102241.50;4991912;28;20300;-51
2022/10/07 07:02:10;;;;;;;23.63;4.90;;;;;;;16.73;100.00;102236.94;4986423;28;20046;-51
2022/10/07 07:04:36;;;;;;;12.73;3.50;;;;;;;16.76;100.00;102236.53;4977509;28;20289;-48
2022/10/07 07:07:02;;;;;;;20.23;4.82;;;;;;;16.91;100.00;102241.75;4993012;28;20332;-51
2022/10/07 07:09:30;;;;;;;17.90;5.03;;;;;;;17.13;100.00;102241.63;4989281;28;20027;-53
2022/10/07 07:11:56;;;;;;;23.80;4.90;;;;;;;17.34;100.00;102236.03;4981999;28;20328;-55
2022/10/07 07:14:25;;;;;;;23.00;5.17;;;;;;;17.25;100.00;102234.56;4998472;28;20298;-53
2022/10/07 07:17:02;;;;;;;19.23;5.50;;;;;;;17.30;100.00;102229.41;4983993;28;20277;-52
2022/10/07 07:19:28;;;;;;;22.77;4.85;;;;;;;17.15;100.00;102232.25;4990242;28;20262;-53
2022/10/07 07:21:55;;;;;;;27.57;6.40;;;;;;;17.47;100.00;102226.25;4985955;28;20074;-50
2022/10/07 07:24:22;;;;;;;25.43;8.13;;;;;;;17.45;100.00;102233.75;4975744;28;20252;-51
2022/10/07 07:26:48;;;;;;;22.83;7.50;;;;;;;17.44;100.00;102232.94;4988589;28;20336;-55
2022/10/07 07:29:15;;;;;;;24.80;6.68;;;;;;;17.62;100.00;102235.00;4986316;28;20035;-53
2022/10/07 07:31:49;;;;;;;29.47;7.57;;;;;;;17.17;100.00;102234.78;4980974;28;20049;-55
2022/10/07 07:34:16;;;;;;;26.87;8.07;;;;;;;17.14;100.00;102243.28;4974890;28;20360;-51
2022/10/07 07:36:45;;;;;;;23.17;6.20;;;;;;;17.42;100.00;102240.44;4990817;28;20298;-54
2022/10/07 07:39:16;;;;;;;25.63;6.80;;;;;;;17.62;100.00;102234.16;4984473;28;20272;-53
2022/10/07 07:41:46;;;;;;;27.37;7.40;;;;;;;17.80;100.00;102230.84;4993153;28;20293;-51
2022/10/07 07:44:17;;;;;;;26.33;7.30;;;;;;;18.02;100.00;102223.31;4983020;28;20298;-50
2022/10/07 07:46:47;;;;;;;23.97;6.40;;;;;;;17.48;100.00;102225.22;4976772;28;20372;-52
2022/10/07 07:49:14;;;;;;;32.97;6.57;;;;;;;18.11;100.00;102225.81;4984985;28;20306;-53
2022/10/07 07:51:42;;;;;;;22.13;6.83;;;;;;;17.94;100.00;102228.09;4980819;28;20348;-50
2022/10/07 07:54:13;;;;;;;28.07;7.00;;;;;;;17.83;100.00;102237.69;4989491;28;20285;-54
2022/10/07 07:56:41;;;;;;;33.10;7.50;;;;;;;18.37;100.00;102235.72;4983718;28;20304;-56
2022/10/07 07:59:09;;;;;;;;;;;;;;;17.97;100.00;102222.25;4980861;28;20282;-53
2022/10/07 08:01:35;;;;;;;25.63;6.47;;;;;;;18.32;100.00;102232.81;4987010;28;19914;-54
2022/10/07 08:04:03;;;;;;;25.00;6.07;;;;;;;18.57;100.00;102234.81;4985552;28;20034;-53
2022/10/07 08:06:31;;;;;;;30.87;5.40;;;;;;;18.65;100.00;102228.31;4986151;28;20031;-52
2022/10/07 08:08:59;;;;;;;20.97;5.20;;;;;;;18.69;100.00;102227.69;4993214;28;20353;-54
2022/10/07 08:11:27;;;;;;;30.73;6.03;;;;;;;18.59;100.00;102225.44;4980015;28;20291;-54
2022/10/07 08:13:54;;;;;;;24.48;5.28;;;;;;;19.02;100.00;102213.13;4983915;28;20293;-53
2022/10/07 08:16:23;;;;;;;20.13;5.10;;;;;;;18.96;100.00;102213.97;4974912;28;20103;-55
2022/10/07 08:18:52;;;;;;;21.43;4.97;;;;;;;18.94;100.00;102224.22;4976673;28;20274;-55
2022/10/07 08:21:20;;;;;;;15.00;3.47;;;;;;;18.99;100.00;102227.13;4993471;28;20341;-54
2022/10/07 08:23:57;;;;;;;14.30;4.60;;;;;;;18.98;100.00;102211.91;4981210;28;20289;-54
2022/10/07 08:26:26;;;;;;;17.53;5.23;;;;;;;18.83;100.00;102211.34;4992642;28;20273;-54
2022/10/07 08:28:51;;;;;;;12.90;3.87;;;;;;;19.08;100.00;102218.72;4983963;28;20366;-53
2022/10/07 08:31:18;;;;;;;16.67;5.28;;;;;;;19.13;100.00;102211.59;4980420;28;20268;-54
2022/10/07 08:33:46;;;;;;;23.83;5.50;;;;;;;19.02;100.00;102205.00;4989982;28;20039;-54
2022/10/07 08:36:15;;;;;;;19.00;4.83;;;;;;;19.22;100.00;102201.31;4986588;28;20280;-53
2022/10/07 08:38:41;;;;;;;17.40;5.00;;;;;;;19.42;100.00;102193.00;4986710;28;20307;-54
2022/10/07 08:41:07;;;;;;;18.43;3.40;;;;;;;18.92;100.00;102193.78;4979960;28;20280;-55
2022/10/07 08:43:36;;;;;;;21.37;4.60;;;;;;;18.87;100.00;102188.16;4985885;28;20296;-51
2022/10/07 08:46:03;;;;;;;14.47;4.47;;;;;;;19.21;100.00;102194.22;4982577;28;20277;-54
2022/10/07 08:48:33;;;;;;;20.57;4.40;;;;;;;19.39;100.00;102189.91;5002630;28;20285;-54
2022/10/07 08:51:37;;;;;;;22.37;5.13;;;;;;;19.41;100.00;102190.53;5001568;28;20287;-56
2022/10/07 08:54:04;;;;;;;32.67;5.60;;;;;;;19.46;100.00;102194.22;5010137;28;20257;-51
2022/10/07 08:56:32;;;;;;;25.73;5.13;;;;;;;19.10;100.00;102201.19;5004531;28;20283;-53
2022/10/07 08:59:20;;;;;;;18.47;3.60;;;;;;;19.05;100.00;102188.28;5001099;28;20043;-55
2022/10/07 09:01:59;;;;;;;20.63;4.30;;;;;;;19.08;100.00;102195.16;5010670;28;20264;-53
2022/10/07 09:04:31;;;;;;;21.40;4.10;;;;;;;19.26;100.00;102201.69;4999217;28;20269;-52
2022/10/07 09:07:07;;;;;;;12.87;3.23;;;;;;;19.44;100.00;102190.88;4997958;28;20297;-53
2022/10/07 09:09:39;;;;;;;23.17;3.63;;;;;;;19.36;100.00;102193.91;5004584;28;20280;-55
2022/10/07 09:12:15;;;;;;;18.37;4.57;;;;;;;19.44;100.00;102196.31;4999618;28;20260;-54
2022/10/07 09:14:45;;;;;;;20.87;4.23;;;;;;;19.56;100.00;102203.75;5005951;28;20269;-54
2022/10/07 09:17:20;;;;;;;17.87;3.63;;;;;;;19.46;100.00;102193.41;5001866;28;20336;-52
2022/10/07 09:19:48;;;;;;;19.93;4.03;;;;;;;19.99;100.00;102189.34;4996255;28;20264;-54
2022/10/07 09:22:30;;;;;;;20.47;4.27;;;;;;;19.89;100.00;102192.56;5006569;28;20303;-57
2022/10/07 09:25:18;;;;;;;16.60;3.47;;;;;;;19.87;100.00;102186.53;5002095;28;20283;-56
2022/10/07 09:27:44;;;;;;;14.73;3.63;;;;;;;19.77;100.00;102183.50;5013170;28;20310;-51
2022/10/07 09:30:12;;;;;;;15.27;3.53;;;;;;;19.63;100.00;102186.34;5001098;28;20308;-55
2022/10/07 09:32:42;;;;;;;13.77;3.10;;;;;;;20.07;100.00;102188.22;5004328;28;20098;-55
2022/10/07 09:35:18;;;;;;;15.83;3.50;;;;;;;20.15;100.00;102195.22;5009804;28;20273;-51
2022/10/07 09:37:57;;;;;;;15.20;3.30;;;;;;;20.65;100.00;102166.19;4998305;28;20265;-53
2022/10/07 09:43:31;;;;;;;16.80;5.00;;;;;;;20.55;100.00;102166.72;5007468;28;20289;-53
2022/10/07 09:45:59;;;;;;;15.73;3.47;;;;;;;21.10;100.00;102160.25;5004617;28;20054;-53
2022/10/07 09:48:33;;;;;;;15.83;3.73;;;;;;;20.86;100.00;102157.50;4997336;28;20207;-51
2022/10/07 09:51:14;;;;;;;12.90;3.00;;;;;;;21.12;100.00;102154.59;5002534;28;20050;-54
2022/10/07 09:54:01;;;;;;;18.57;3.67;;;;;;;21.26;100.00;102149.75;5003550;28;20098;-52
2022/10/07 09:56:43;;;;;;;24.77;5.03;;;;;;;21.32;100.00;102148.81;5002739;28;20034;-52
2022/10/07 09:59:26;;;;;;;13.40;3.67;;;;;;;21.81;100.00;102151.28;5007986;28;20019;-52
2022/10/07 10:01:56;;;;;;;16.67;3.47;;;;;;;21.54;100.00;102140.91;4998453;28;20061;-53
2022/10/07 10:04:34;;;;;;;14.80;3.40;;;;;;;21.89;100.00;102136.50;5007167;28;20031;-55
2022/10/07 10:07:06;;;;;;;19.00;3.43;;;;;;;22.52;100.00;102141.25;5004645;28;20096;-52
2022/10/07 10:09:33;;;;;;;14.63;2.97;;;;;;;22.82;100.00;102137.41;5008286;28;20031;-50
2022/10/07 10:12:01;;;;;;;18.70;3.67;;;;;;;23.58;100.00;102136.13;5000518;28;20037;-54
2022/10/07 10:14:44;;;;;;;16.67;3.70;;;;;;;23.22;100.00;102146.53;5008436;28;20028;-55
2022/10/07 10:17:39;;;;;;;15.03;3.30;;;;;;;24.06;100.00;102134.59;4998280;28;20027;-50
2022/10/07 10:20:45;;;;;;;17.77;2.87;;;;;;;24.15;100.00;102131.41;4994654;28;20047;-52
2022/10/07 10:23:25;;;;;;;15.70;2.93;;;;;;;23.52;100.00;102135.25;5003671;28;20031;-53
2022/10/07 10:29:06;;;;;;;11.63;3.00;;;;;;;24.87;90.61;102112.97;4997445;28;20038;-53
2022/10/07 10:32:01;;;;;;;11.80;2.40;;;;;;;26.11;82.09;102115.56;5007378;28;20039;-51
2022/10/07 10:35:08;;;;;;;12.10;3.00;;;;;;;26.86;72.03;102128.00;5000862;28;20038;-53
2022/10/07 10:38:03;;;;;;;19.50;2.90;;;;;;;27.29;70.16;102127.69;5005863;28;20031;-55
2022/10/07 10:40:39;;;;;;;11.07;2.33;;;;;;;26.59;71.84;102131.00;5005482;28;20039;-53
2022/10/07 10:43:23;;;;;;;6.97;2.30;;;;;;;27.40;68.20;102116.66;4997782;28;20054;-53
2022/10/07 10:46:07;;;;;;;14.23;3.00;;;;;;;27.97;63.53;102109.03;5001682;28;20035;-55
2022/10/07 10:48:39;;;;;;;12.90;2.90;;;;;;;28.02;63.57;102110.94;5005271;28;20047;-55
2022/10/07 10:51:30;;;;;;;14.70;2.60;;;;;;;28.42;61.32;102108.22;5006611;28;20061;-55
2022/10/07 10:54:21;;;;;;;11.00;2.00;;;;;;;27.92;62.19;102106.31;5003736;28;20039;-56
2022/10/07 10:56:57;;;;;;;10.77;2.30;;;;;;;29.29;56.25;102112.13;4998733;28;20023;-54
2022/10/07 10:59:37;;;;;;;13.32;2.35;;;;;;;28.52;56.15;102099.06;5010187;28;20046;-53
2022/10/07 11:02:23;;;;;;;31.45;3.55;;;;;;;28.22;56.82;102090.75;5003539;28;20065;-55
2022/10/07 11:04:53;;;;;;;13.77;2.73;;;;;;;29.15;54.61;102086.41;5009383;28;20040;-54
2022/10/07 11:07:23;;;;;;;10.37;2.17;;;;;;;28.90;54.59;102085.56;5006045;28;20037;-53
2022/10/07 11:09:55;;;;;;;12.20;2.33;;;;;;;29.26;52.54;102070.59;4997867;28;20126;-54
2022/10/07 11:12:25;;;;;;;8.10;1.65;;;;;;;29.32;50.84;102072.16;5007525;28;20038;-54
2022/10/07 11:14:58;;;;;;;9.30;1.80;;;;;;;29.88;49.55;102081.66;5002455;28;20093;-56
2022/10/07 11:17:29;;;;;;;12.30;1.95;;;;;;;30.11;50.07;102079.13;5005529;28;20089;-56
2022/10/07 11:20:03;;;;;;;12.68;1.95;;;;;;;29.78;49.41;102068.03;5002367;28;20068;-54
2022/10/07 11:22:37;;;;;;;11.50;2.55;;;;;;;29.71;48.27;102062.88;5003970;28;20070;-56
2022/10/07 11:25:22;;;;;;;11.65;2.00;;;;;;;28.99;48.88;102064.53;5003650;28;20034;-50
2022/10/07 11:27:52;;;;;;;15.10;2.78;;;;;;;29.77;48.04;102058.91;5014871;28;20038;-56
2022/10/07 11:30:21;;;;;;;10.88;2.55;;;;;;;31.56;45.02;102054.41;5009501;28;20046;-53
2022/10/07 11:33:10;;;;;;;10.65;1.77;;;;;;;32.14;42.19;102060.31;5006007;28;20039;-53
2022/10/07 11:35:47;;;;;;;17.25;2.10;;;;;;;31.24;43.39;102047.94;5006531;28;20038;-55
2022/10/07 11:38:20;;;;;;;17.55;2.53;;;;;;;31.50;42.85;102049.34;5009649;28;20027;-57
2022/10/07 11:40:53;;;;;;;12.23;2.10;;;;;;;32.74;41.12;102052.72;5003930;28;20031;-51
2022/10/07 11:43:45;;;;;;;13.88;3.08;;;;;;;30.93;43.65;102037.47;5001659;28;20045;-53